createdAt,value
2022-08-05T00:00:23.150Z,80.90
2022-08-05T00:01:28.438Z,81.50
2022-08-05T00:02:23.224Z,79.39
2022-08-05T00:03:23.101Z,79.69
2022-08-05T00:04:23.120Z,78.59
2022-08-05T00:06:03.005Z,79.29
2022-08-05T00:06:32.161Z,79.39
2022-08-05T00:07:59.799Z,78.96
2022-08-05T00:08:34.374Z,80.10
2022-08-05T00:09:23.061Z,79.49
2022-08-05T00:10:27.082Z,80.30
2022-08-05T00:11:28.092Z,79.90
2022-08-05T00:12:23.021Z,80.40
2022-08-05T00:13:39.124Z,80.30
2022-08-05T00:14:29.154Z,78.69
2022-08-05T00:15:55.350Z,78.19
2022-08-05T00:16:35.365Z,80.10
2022-08-05T00:17:22.975Z,81.00
2022-08-05T00:18:22.968Z,80.19
2022-08-05T00:19:23.433Z,80.10
2022-08-05T00:20:53.022Z,80.13
2022-08-05T00:21:22.937Z,79.03
2022-08-05T00:22:22.903Z,78.42
2022-08-05T00:23:44.385Z,78.53
2022-08-05T00:24:24.570Z,78.12
2022-08-05T00:25:22.892Z,78.12
2022-08-05T00:26:22.857Z,78.89
2022-08-05T00:27:36.241Z,78.53
2022-08-05T00:28:29.589Z,78.33
2022-08-05T00:29:25.564Z,77.92
2022-08-05T00:30:29.068Z,79.73
2022-08-05T00:31:41.427Z,80.04
2022-08-05T00:32:22.814Z,81.04
2022-08-05T00:34:54.889Z,80.83
2022-08-05T00:35:11.032Z,81.74
2022-08-05T00:35:22.783Z,81.88
2022-08-05T00:37:09.839Z,81.78
2022-08-05T00:37:22.810Z,81.98
2022-08-05T00:38:28.959Z,80.47
2022-08-05T00:39:22.815Z,80.88
2022-08-05T00:40:28.409Z,81.58
2022-08-05T00:41:22.715Z,81.18
2022-08-05T00:42:31.774Z,82.48
2022-08-05T00:43:22.702Z,81.78
2022-08-05T00:44:23.298Z,82.08
2022-08-05T00:45:25.019Z,80.68
2022-08-05T00:46:42.581Z,80.17
2022-08-05T00:47:22.777Z,81.18
2022-08-05T00:48:31.194Z,80.88
2022-08-05T00:49:22.625Z,81.72
2022-08-05T00:50:25.270Z,81.12
2022-08-05T00:51:50.411Z,81.12
2022-08-05T00:52:28.787Z,81.01
2022-08-05T00:54:00.765Z,81.32
2022-08-05T00:54:22.562Z,82.22
2022-08-05T00:55:22.559Z,82.22
2022-08-05T00:56:22.721Z,82.02
2022-08-05T00:57:22.941Z,81.76
2022-08-05T00:58:27.323Z,81.76
2022-08-05T00:59:22.546Z,82.26
2022-08-05T01:00:22.526Z,80.95
2022-08-05T01:01:24.897Z,81.56
2022-08-05T01:02:24.400Z,82.16
2022-08-05T01:03:23.435Z,82.36
2022-08-05T01:04:26.931Z,82.06
2022-08-05T01:05:22.463Z,81.85
2022-08-05T01:06:22.433Z,82.36
2022-08-05T01:07:22.459Z,82.76
2022-08-05T01:08:40.697Z,82.26
2022-08-05T01:09:22.694Z,81.26
2022-08-05T01:10:25.801Z,82.56
2022-08-05T01:11:24.153Z,83.17
2022-08-05T01:12:22.372Z,82.06
2022-08-05T01:13:27.468Z,83.47
2022-08-05T01:14:28.323Z,82.16
2022-08-05T01:15:36.424Z,82.86
2022-08-05T01:16:26.156Z,83.47
2022-08-05T01:17:22.678Z,82.56
2022-08-05T01:18:22.319Z,81.46
2022-08-05T01:19:46.255Z,81.26
2022-08-05T01:20:22.476Z,82.26
2022-08-05T01:21:23.069Z,81.05
2022-08-05T01:22:24.083Z,81.05
2022-08-05T01:23:22.828Z,81.15
2022-08-05T01:24:22.246Z,81.56
2022-08-05T01:25:22.248Z,82.16
2022-08-05T01:26:26.372Z,82.86
2022-08-05T01:27:22.344Z,82.06
2022-08-05T01:28:22.224Z,82.16
2022-08-05T01:29:22.940Z,82.36
2022-08-05T01:30:33.712Z,81.79
2022-08-05T01:31:22.197Z,82.60
2022-08-05T01:32:22.179Z,83.61
2022-08-05T01:33:22.193Z,83.20
2022-08-05T01:34:22.144Z,82.80
2022-08-05T01:35:50.241Z,82.70
2022-08-05T01:36:28.164Z,82.30
2022-08-05T01:37:24.982Z,84.11
2022-08-05T01:38:26.820Z,83.20
2022-08-05T01:39:46.572Z,83.11
2022-08-05T01:40:22.092Z,82.40
2022-08-05T01:41:22.144Z,83.81
2022-08-05T01:42:22.156Z,83.11
2022-08-05T01:43:24.161Z,84.31
2022-08-05T01:44:22.084Z,82.60
2022-08-05T01:45:22.055Z,84.71
2022-08-05T01:46:42.810Z,83.81
2022-08-05T01:47:22.329Z,85.72
2022-08-05T01:48:22.023Z,84.91
2022-08-05T01:49:23.878Z,83.40
2022-08-05T01:50:28.675Z,83.81
2022-08-05T01:51:21.994Z,82.60
2022-08-05T01:52:22.185Z,82.10
2022-08-05T01:53:54.971Z,83.61
2022-08-05T01:54:25.586Z,84.41
2022-08-05T01:55:21.982Z,83.00
2022-08-05T01:58:11.867Z,82.40
2022-08-05T01:58:40.379Z,81.39
2022-08-05T01:58:50.261Z,81.99
2022-08-05T01:59:29.226Z,82.10
2022-08-05T02:00:30.045Z,81.59
2022-08-05T02:01:29.291Z,81.19
2022-08-05T02:02:29.235Z,83.20
2022-08-05T02:03:31.925Z,82.30
2022-08-05T02:04:30.098Z,80.85
2022-08-05T02:05:29.201Z,81.76
2022-08-05T02:06:37.931Z,82.26
2022-08-05T02:07:30.218Z,82.06
2022-08-05T02:08:31.178Z,81.65
2022-08-05T02:09:29.139Z,81.35
2022-08-05T02:10:29.136Z,83.37
2022-08-05T02:11:33.067Z,80.85
2022-08-05T02:12:29.095Z,82.86
2022-08-05T02:13:48.792Z,81.35
2022-08-05T02:14:29.071Z,82.76
2022-08-05T02:15:33.170Z,79.35
2022-08-05T02:16:29.072Z,80.85
2022-08-05T02:18:15.178Z,79.35
2022-08-05T02:18:35.460Z,81.65
2022-08-05T02:19:34.153Z,81.76
2022-08-05T02:20:29.008Z,80.15
2022-08-05T02:21:29.037Z,81.26
2022-08-05T02:22:28.995Z,81.85
2022-08-05T02:23:28.990Z,83.06
2022-08-05T02:24:28.983Z,81.76
2022-08-05T02:25:33.019Z,83.17
2022-08-05T02:26:28.973Z,80.65
2022-08-05T02:27:30.151Z,82.40
2022-08-05T02:28:32.961Z,82.40
2022-08-05T02:29:58.973Z,81.70
2022-08-05T02:30:28.918Z,82.10
2022-08-05T02:31:28.951Z,83.51
2022-08-05T02:32:30.595Z,82.90
2022-08-05T02:33:38.316Z,84.71
2022-08-05T02:34:28.873Z,83.61
2022-08-05T02:35:33.262Z,83.51
2022-08-05T02:36:31.599Z,83.00
2022-08-05T02:37:28.866Z,83.51
2022-08-05T02:38:28.818Z,81.90
2022-08-05T02:39:28.872Z,81.65
2022-08-05T02:40:28.806Z,83.47
2022-08-05T02:41:43.362Z,84.67
2022-08-05T02:42:34.288Z,83.26
2022-08-05T02:43:28.796Z,82.76
2022-08-05T02:44:28.760Z,80.35
2022-08-05T02:45:28.761Z,83.57
2022-08-05T02:46:28.781Z,81.46
2022-08-05T02:47:58.680Z,81.65
2022-08-05T02:48:29.312Z,81.96
2022-08-05T02:49:36.998Z,83.57
2022-08-05T02:50:28.717Z,82.26
2022-08-05T02:52:03.853Z,82.97
2022-08-05T02:52:30.262Z,83.76
2022-08-05T02:53:28.676Z,82.16
2022-08-05T02:54:34.876Z,80.95
2022-08-05T02:55:53.832Z,81.85
2022-08-05T02:56:28.658Z,82.26
2022-08-05T02:58:11.080Z,81.35
2022-08-05T02:58:28.893Z,83.17
2022-08-05T02:59:28.623Z,83.06
2022-08-05T03:00:28.595Z,82.26
2022-08-05T03:01:28.668Z,81.56
2022-08-05T03:02:28.570Z,82.76
2022-08-05T03:03:28.579Z,81.76
2022-08-05T03:04:28.555Z,83.47
2022-08-05T03:06:57.161Z,83.57
2022-08-05T03:07:03.752Z,84.77
2022-08-05T03:07:59.285Z,84.07
2022-08-05T03:08:29.815Z,83.57
2022-08-05T03:09:37.384Z,83.06
2022-08-05T03:10:28.500Z,81.85
2022-08-05T03:11:56.393Z,81.96
2022-08-05T03:12:28.477Z,80.85
2022-08-05T03:13:28.480Z,82.76
2022-08-05T03:14:28.468Z,83.76
2022-08-05T03:15:28.451Z,84.27
2022-08-05T03:16:28.451Z,83.76
2022-08-05T03:17:28.420Z,83.76
2022-08-05T03:18:29.966Z,81.56
2022-08-05T03:19:34.424Z,80.65
2022-08-05T03:20:28.405Z,80.55
2022-08-05T03:21:28.869Z,81.56
2022-08-05T03:22:32.272Z,82.52
2022-08-05T03:23:28.354Z,82.52
2022-08-05T03:24:30.438Z,83.67
2022-08-05T03:26:02.671Z,82.86
2022-08-05T03:26:32.472Z,82.66
2022-08-05T03:27:39.200Z,81.96
2022-08-05T03:28:28.317Z,82.36
2022-08-05T03:29:45.186Z,83.06
2022-08-05T03:30:33.547Z,82.60
2022-08-05T03:31:57.020Z,81.59
2022-08-05T03:32:30.929Z,83.40
2022-08-05T03:33:42.231Z,83.81
2022-08-05T03:34:28.252Z,82.70
2022-08-05T03:35:28.225Z,82.20
2022-08-05T03:36:30.587Z,82.30
2022-08-05T03:37:28.222Z,83.00
2022-08-05T03:38:33.340Z,82.80
2022-08-05T03:39:28.268Z,82.60
2022-08-05T03:40:32.160Z,82.30
2022-08-05T03:41:33.012Z,81.49
2022-08-05T03:42:29.165Z,81.90
2022-08-05T03:44:08.633Z,82.60
2022-08-05T03:44:29.028Z,81.79
2022-08-05T03:45:28.140Z,81.59
2022-08-05T03:46:29.730Z,81.59
2022-08-05T03:47:30.473Z,83.11
2022-08-05T03:48:28.195Z,81.99
2022-08-05T03:49:31.205Z,81.59
2022-08-05T03:50:28.331Z,81.09
2022-08-05T03:52:38.329Z,83.81
2022-08-05T03:56:09.414Z,82.60
2022-08-05T03:56:30.508Z,78.44
2022-08-05T03:56:50.011Z,81.21
2022-08-05T03:57:48.810Z,80.11
2022-08-05T03:58:48.363Z,77.26
2022-08-05T03:59:54.988Z,79.37
2022-08-05T04:00:51.418Z,80.88
2022-08-05T04:01:48.494Z,82.38
2022-08-05T04:02:58.738Z,82.89
2022-08-05T04:04:05.383Z,82.58
2022-08-05T04:04:48.311Z,81.38
2022-08-05T04:05:48.280Z,82.28
2022-08-05T04:06:51.303Z,82.08
2022-08-05T04:07:57.247Z,79.37
2022-08-05T04:08:48.593Z,80.27
2022-08-05T04:09:53.060Z,80.98
2022-08-05T04:10:48.261Z,82.42
2022-08-05T04:11:52.477Z,82.82
2022-08-05T04:12:48.225Z,80.51
2022-08-05T04:13:51.389Z,81.21
2022-08-05T04:14:48.203Z,82.97
2022-08-05T04:16:02.802Z,80.95
2022-08-05T04:16:48.227Z,81.26
2022-08-05T04:17:57.351Z,82.46
2022-08-05T04:18:48.169Z,83.67
2022-08-05T04:19:54.479Z,84.07
2022-08-05T04:20:48.131Z,84.77
2022-08-05T04:22:10.216Z,82.97
2022-08-05T04:22:48.118Z,83.87
2022-08-05T04:24:00.208Z,83.51
2022-08-05T04:24:52.589Z,84.21
2022-08-05T04:26:00.652Z,83.81
2022-08-05T04:26:48.092Z,84.71
2022-08-05T04:27:57.280Z,84.71
2022-08-05T04:28:51.953Z,84.21
2022-08-05T04:29:48.450Z,84.71
2022-08-05T04:30:48.165Z,84.75
2022-08-05T04:31:48.521Z,86.06
2022-08-05T04:32:48.019Z,87.17
2022-08-05T04:34:17.066Z,86.36
2022-08-05T04:34:48.019Z,86.26
2022-08-05T04:36:15.760Z,83.75
2022-08-05T04:36:50.141Z,84.45
2022-08-05T04:38:01.503Z,85.36
2022-08-05T04:38:51.121Z,85.96
2022-08-05T04:39:52.773Z,85.86
2022-08-05T04:40:50.851Z,85.96
2022-08-05T04:41:48.163Z,85.96
2022-08-05T04:42:47.908Z,84.75
2022-08-05T04:43:51.979Z,85.56
2022-08-05T04:44:47.905Z,84.55
2022-08-05T04:45:55.096Z,85.56
2022-08-05T04:46:48.442Z,85.46
2022-08-05T04:47:47.841Z,85.86
2022-08-05T04:48:47.855Z,86.46
2022-08-05T04:50:02.759Z,85.46
2022-08-05T04:51:03.839Z,86.16
2022-08-05T04:51:47.826Z,85.66
2022-08-05T04:52:47.828Z,85.36
2022-08-05T04:53:47.780Z,84.45
2022-08-05T04:54:49.364Z,83.95
2022-08-05T04:56:32.275Z,83.45
2022-08-05T04:56:47.800Z,83.84
2022-08-05T04:57:54.065Z,83.04
2022-08-05T04:58:47.758Z,84.35
2022-08-05T04:59:48.155Z,84.65
2022-08-05T05:00:50.794Z,85.25
2022-08-05T05:02:07.373Z,84.45
2022-08-05T05:02:47.786Z,85.36
2022-08-05T05:03:47.695Z,85.25
2022-08-05T05:04:49.868Z,86.06
2022-08-05T05:06:39.234Z,85.16
2022-08-05T05:06:52.015Z,83.34
2022-08-05T05:07:52.979Z,83.40
2022-08-05T05:08:50.121Z,83.11
2022-08-05T05:09:47.628Z,86.12
2022-08-05T05:10:56.121Z,85.22
2022-08-05T05:11:55.487Z,85.22
2022-08-05T05:12:47.623Z,85.42
2022-08-05T05:13:47.578Z,84.71
2022-08-05T05:14:50.541Z,84.81
2022-08-05T05:15:57.395Z,84.71
2022-08-05T05:16:47.580Z,85.02
2022-08-05T05:17:56.974Z,84.31
2022-08-05T05:19:08.835Z,84.57
2022-08-05T05:19:47.531Z,83.87
2022-08-05T05:20:47.526Z,85.28
2022-08-05T05:21:47.532Z,86.99
2022-08-05T05:22:47.503Z,86.08
2022-08-05T05:24:03.829Z,84.57
2022-08-05T05:24:57.899Z,85.17
2022-08-05T05:25:47.760Z,86.99
2022-08-05T05:26:50.050Z,85.88
2022-08-05T05:27:53.677Z,85.64
2022-08-05T05:28:47.452Z,84.63
2022-08-05T05:30:04.369Z,85.14
2022-08-05T05:30:49.602Z,84.03
2022-08-05T05:31:47.434Z,82.52
2022-08-05T05:32:47.402Z,84.94
2022-08-05T05:33:59.543Z,85.03
2022-08-05T05:34:47.381Z,87.15
2022-08-05T05:35:47.916Z,84.23
2022-08-05T05:36:47.364Z,84.33
2022-08-05T05:37:59.772Z,83.63
2022-08-05T05:38:47.347Z,83.53
2022-08-05T05:39:47.408Z,83.23
2022-08-05T05:40:51.321Z,83.53
2022-08-05T05:41:54.137Z,84.39
2022-08-05T05:42:47.289Z,84.09
2022-08-05T05:43:58.627Z,83.18
2022-08-05T05:44:47.286Z,83.59
2022-08-05T05:45:48.163Z,81.27
2022-08-05T05:46:47.747Z,83.39
2022-08-05T05:48:05.438Z,84.29
2022-08-05T05:48:48.220Z,81.78
2022-08-05T05:49:47.210Z,82.38
2022-08-05T05:50:47.234Z,82.58
2022-08-05T05:51:50.396Z,81.68
2022-08-05T05:52:47.214Z,82.28
2022-08-05T05:53:57.161Z,83.49
2022-08-05T05:54:50.255Z,82.98
2022-08-05T05:55:52.236Z,83.99
2022-08-05T05:56:47.349Z,85.10
2022-08-05T05:57:52.188Z,84.43
2022-08-05T05:58:47.149Z,83.63
2022-08-05T05:59:47.122Z,84.74
2022-08-05T06:00:47.120Z,84.53
2022-08-05T06:01:57.150Z,84.23
2022-08-05T06:02:47.105Z,85.14
2022-08-05T06:04:00.755Z,84.53
2022-08-05T06:04:49.131Z,83.43
2022-08-05T06:05:54.176Z,81.82
2022-08-05T06:06:48.735Z,83.73
2022-08-05T06:07:57.947Z,82.62
2022-08-05T06:08:49.194Z,83.12
2022-08-05T06:09:59.894Z,84.03
2022-08-05T06:10:52.358Z,81.72
2022-08-05T06:11:59.184Z,83.43
2022-08-05T06:12:46.998Z,83.33
2022-08-05T06:13:53.646Z,83.23
2022-08-05T06:14:46.993Z,83.12
2022-08-05T06:16:29.108Z,83.23
2022-08-05T06:16:46.958Z,83.53
2022-08-05T06:17:52.821Z,85.03
2022-08-05T06:18:46.925Z,82.42
2022-08-05T06:19:56.937Z,84.03
2022-08-05T06:20:47.776Z,81.82
2022-08-05T06:21:49.690Z,83.03
2022-08-05T06:22:46.911Z,82.12
2022-08-05T06:23:46.897Z,84.03
2022-08-05T06:24:46.873Z,82.22
2022-08-05T06:26:13.405Z,81.41
2022-08-05T06:26:51.302Z,82.02
2022-08-05T06:28:12.749Z,82.92
2022-08-05T06:28:46.824Z,85.44
2022-08-05T06:30:05.950Z,84.13
2022-08-05T06:30:46.811Z,84.63
2022-08-05T06:31:46.790Z,84.33
2022-08-05T06:32:46.899Z,84.49
2022-08-05T06:34:05.994Z,83.09
2022-08-05T06:34:47.026Z,84.99
2022-08-05T06:36:03.497Z,84.80
2022-08-05T06:36:57.399Z,83.79
2022-08-05T06:37:57.450Z,80.07
2022-08-05T06:38:47.229Z,78.93
2022-08-05T06:39:46.738Z,77.28
2022-08-05T06:40:46.720Z,76.04
2022-08-05T06:41:46.679Z,76.31
2022-08-05T06:42:46.688Z,75.10
2022-08-05T06:43:58.297Z,74.37
2022-08-05T06:48:58.746Z,72.73
2022-08-05T06:49:07.524Z,72.09
2022-08-05T06:50:05.288Z,72.36
2022-08-05T06:51:09.940Z,71.16
2022-08-05T06:52:04.195Z,70.76
2022-08-05T06:53:19.588Z,70.96
2022-08-05T06:54:04.152Z,70.73
2022-08-05T06:55:04.102Z,70.62
2022-08-05T06:56:04.131Z,70.03
2022-08-05T06:57:56.663Z,70.23
2022-08-05T06:58:30.004Z,70.12
2022-08-05T06:59:08.484Z,70.12
2022-08-05T07:00:04.067Z,71.03
2022-08-05T07:01:04.160Z,70.62
2022-08-05T07:02:04.043Z,70.29
2022-08-05T07:03:04.032Z,71.39
2022-08-05T07:04:04.073Z,70.89
2022-08-05T07:05:04.005Z,71.29
2022-08-05T07:06:06.126Z,71.29
2022-08-05T07:07:07.856Z,70.69
2022-08-05T07:08:03.987Z,70.59
2022-08-05T07:09:04.636Z,70.99
2022-08-05T07:10:03.970Z,70.66
2022-08-05T07:11:03.945Z,70.36
2022-08-05T07:12:03.970Z,70.26
2022-08-05T07:13:05.589Z,70.56
2022-08-05T07:14:04.262Z,70.96
2022-08-05T07:15:03.888Z,70.86
2022-08-05T07:16:04.779Z,71.16
2022-08-05T07:18:01.317Z,70.76
2022-08-05T07:18:20.407Z,70.56
2022-08-05T07:19:03.878Z,70.23
2022-08-05T07:20:32.157Z,70.62
2022-08-05T07:21:05.470Z,70.42
2022-08-05T07:22:03.875Z,69.32
2022-08-05T07:23:04.585Z,72.62
2022-08-05T07:24:03.813Z,70.03
2022-08-05T07:25:54.489Z,69.23
2022-08-05T07:26:03.795Z,69.93
2022-08-05T07:27:03.768Z,71.12
2022-08-05T07:28:08.263Z,68.82
2022-08-05T07:29:03.765Z,68.99
2022-08-05T07:30:25.483Z,70.09
2022-08-05T07:31:03.754Z,70.49
2022-08-05T07:32:03.920Z,66.50
2022-08-05T07:33:05.558Z,67.30
2022-08-05T07:34:03.730Z,66.77
2022-08-05T07:36:02.889Z,67.76
2022-08-05T07:36:20.627Z,68.46
2022-08-05T07:37:03.670Z,68.86
2022-08-05T07:38:03.660Z,68.06
2022-08-05T07:39:05.637Z,67.57
2022-08-05T07:40:31.617Z,67.73
2022-08-05T07:42:07.355Z,67.43
2022-08-05T07:42:16.248Z,67.63
2022-08-05T07:43:13.817Z,67.83
2022-08-05T07:44:03.874Z,68.43
2022-08-05T07:45:03.600Z,69.29
2022-08-05T07:46:03.603Z,67.50
2022-08-05T07:47:06.213Z,66.50
2022-08-05T07:48:03.582Z,66.77
2022-08-05T07:49:06.277Z,66.37
2022-08-05T07:50:06.508Z,65.97
2022-08-05T07:51:03.532Z,63.58
2022-08-05T07:52:03.525Z,64.15
2022-08-05T07:53:03.503Z,63.45
2022-08-05T07:54:03.786Z,64.25
2022-08-05T07:55:04.300Z,65.34
2022-08-05T07:56:06.462Z,63.32
2022-08-05T07:57:50.564Z,63.42
2022-08-05T07:58:04.077Z,63.62
2022-08-05T07:59:03.461Z,65.51
2022-08-05T08:00:03.465Z,63.22
2022-08-05T08:01:06.239Z,62.29
2022-08-05T08:02:03.434Z,65.38
2022-08-05T08:03:14.896Z,63.59
2022-08-05T08:04:03.399Z,62.29
2022-08-05T08:05:03.410Z,64.88
2022-08-05T08:06:03.404Z,63.69
2022-08-05T08:07:05.504Z,63.59
2022-08-05T08:08:03.349Z,64.28
2022-08-05T08:09:03.363Z,64.06
2022-08-05T08:10:03.356Z,61.07
2022-08-05T08:11:03.343Z,61.67
2022-08-05T08:12:10.660Z,58.69
2022-08-05T08:13:03.340Z,58.09
2022-08-05T08:14:03.295Z,57.69
2022-08-05T08:15:04.451Z,57.56
2022-08-05T08:16:35.650Z,58.26
2022-08-05T08:17:03.268Z,58.33
2022-08-05T08:18:06.984Z,60.09
2022-08-05T08:19:03.246Z,55.82
2022-08-05T08:20:21.107Z,59.00
2022-08-05T08:21:04.170Z,56.91
2022-08-05T08:22:03.215Z,57.01
2022-08-05T08:23:03.420Z,57.58
2022-08-05T08:24:05.269Z,56.59
2022-08-05T08:25:03.972Z,56.49
2022-08-05T08:26:04.626Z,58.04
2022-08-05T08:27:03.193Z,55.76
2022-08-05T08:28:03.139Z,56.76
2022-08-05T08:30:03.126Z,56.36
2022-08-05T08:30:27.697Z,58.15
2022-08-05T08:31:04.451Z,57.42
2022-08-05T08:32:03.152Z,57.32
2022-08-05T08:33:08.064Z,53.63
2022-08-05T08:34:03.105Z,54.42
2022-08-05T08:35:03.105Z,54.22
2022-08-05T08:36:29.322Z,55.49
2022-08-05T08:37:04.788Z,53.11
2022-08-05T08:38:03.068Z,51.89
2022-08-05T08:39:03.097Z,52.78
2022-08-05T08:40:03.636Z,50.98
2022-08-05T08:41:03.026Z,51.65
2022-08-05T08:42:04.604Z,52.34
2022-08-05T08:45:16.332Z,50.24
2022-08-05T08:45:29.618Z,52.88
2022-08-05T08:45:34.745Z,50.19
2022-08-05T08:46:34.748Z,52.06
2022-08-05T08:48:06.656Z,47.89
2022-08-05T08:49:03.365Z,47.89
2022-08-05T08:50:23.482Z,49.48
2022-08-05T08:51:22.612Z,51.64
2022-08-05T08:52:13.597Z,50.14
2022-08-05T08:52:34.702Z,49.33
2022-08-05T08:53:34.681Z,47.70
2022-08-05T08:54:36.298Z,47.41
2022-08-05T08:56:04.605Z,46.99
2022-08-05T08:56:34.657Z,45.88
2022-08-05T08:57:48.324Z,45.86
2022-08-05T08:58:43.098Z,44.46
2022-08-05T08:59:34.644Z,44.05
2022-08-05T09:00:34.636Z,43.51
2022-08-05T09:01:34.679Z,42.85
2022-08-05T09:02:34.606Z,43.73
2022-08-05T09:03:40.412Z,42.53
2022-08-05T09:04:34.572Z,42.79
2022-08-05T09:05:38.752Z,45.00
2022-08-05T09:06:36.191Z,45.49
2022-08-05T09:07:39.878Z,46.08
2022-08-05T09:08:34.529Z,48.35
2022-08-05T09:09:35.429Z,51.37
2022-08-05T09:10:34.516Z,50.04
2022-08-05T09:11:51.176Z,50.38
2022-08-05T09:12:35.001Z,48.44
2022-08-05T09:14:01.160Z,47.97
2022-08-05T09:15:04.779Z,47.97
2022-08-05T09:15:36.959Z,50.98
2022-08-05T09:16:34.479Z,46.79
2022-08-05T09:17:40.501Z,47.97
2022-08-05T09:18:34.459Z,49.40
2022-08-05T09:19:36.602Z,49.52
2022-08-05T09:20:37.635Z,50.43
2022-08-05T09:22:23.041Z,49.96
2022-08-05T09:22:36.487Z,49.89
2022-08-05T09:23:43.333Z,49.01
2022-08-05T09:24:34.387Z,49.20
2022-08-05T09:26:00.353Z,51.40
2022-08-05T09:26:34.359Z,50.12
2022-08-05T09:28:05.219Z,50.13
2022-08-05T09:28:34.864Z,51.54
2022-08-05T09:29:34.349Z,53.03
2022-08-05T09:30:34.402Z,50.78
2022-08-05T09:32:51.325Z,56.42
2022-08-05T09:32:56.758Z,55.85
2022-08-05T09:33:35.213Z,52.73
2022-08-05T09:34:34.317Z,54.46
2022-08-05T09:35:34.291Z,51.75
2022-08-05T09:36:34.268Z,50.34
2022-08-05T09:38:17.324Z,53.50
2022-08-05T09:38:34.266Z,53.99
2022-08-05T09:39:45.234Z,52.80
2022-08-05T09:40:34.234Z,56.63
2022-08-05T09:41:39.100Z,50.46
2022-08-05T09:42:34.852Z,47.41
2022-08-05T09:43:41.024Z,52.39
2022-08-05T09:44:34.195Z,52.91
2022-08-05T09:46:06.908Z,51.64
2022-08-05T09:46:35.084Z,55.92
2022-08-05T09:47:36.532Z,56.41
2022-08-05T09:48:34.141Z,53.87
2022-08-05T09:49:54.853Z,54.49
2022-08-05T09:50:38.913Z,57.39
2022-08-05T09:51:34.140Z,59.36
2022-08-05T09:52:35.341Z,62.46
2022-08-05T09:53:53.903Z,57.41
2022-08-05T09:54:34.092Z,58.47
2022-08-05T09:55:57.459Z,53.79
2022-08-05T09:56:34.082Z,51.18
2022-08-05T09:57:35.363Z,48.13
2022-08-05T09:58:34.076Z,48.86
2022-08-05T09:59:35.091Z,47.59
2022-08-05T10:00:34.028Z,44.94
2022-08-05T10:01:34.027Z,48.62
2022-08-05T10:02:34.073Z,48.08
2022-08-05T10:03:51.822Z,44.64
2022-08-05T10:04:33.997Z,41.86
2022-08-05T10:05:33.999Z,42.64
2022-08-05T10:06:33.972Z,42.69
2022-08-05T10:08:10.567Z,43.75
2022-08-05T10:08:42.443Z,45.07
2022-08-05T10:09:45.436Z,40.27
2022-08-05T10:10:33.973Z,41.03
2022-08-05T10:11:35.191Z,39.94
2022-08-05T10:12:34.165Z,39.67
2022-08-05T10:13:46.303Z,44.24
2022-08-05T10:14:33.911Z,42.32
2022-08-05T10:15:34.096Z,43.77
2022-08-05T10:16:37.618Z,46.30
2022-08-05T10:17:38.064Z,47.52
2022-08-05T10:18:33.916Z,45.97
2022-08-05T10:20:04.288Z,49.65
2022-08-05T10:20:33.853Z,47.88
2022-08-05T10:21:35.190Z,49.06
2022-08-05T10:22:37.684Z,47.41
2022-08-05T10:23:55.233Z,44.76
2022-08-05T10:24:33.812Z,47.61
2022-08-05T10:25:33.814Z,48.13
2022-08-05T10:26:33.866Z,47.92
2022-08-05T10:28:13.681Z,49.13
2022-08-05T10:28:33.850Z,51.23
2022-08-05T10:30:06.967Z,47.97
2022-08-05T10:32:54.349Z,47.90
2022-08-05T10:33:04.943Z,52.73
2022-08-05T10:33:14.707Z,52.09
2022-08-05T10:34:14.037Z,57.54
2022-08-05T10:35:14.005Z,59.42
2022-08-05T10:36:14.006Z,53.99
2022-08-05T10:37:13.980Z,54.28
2022-08-05T10:38:13.994Z,52.91
2022-08-05T10:39:24.602Z,54.88
2022-08-05T10:40:17.410Z,55.47
2022-08-05T10:41:14.140Z,58.33
2022-08-05T10:42:13.952Z,54.55
2022-08-05T10:43:13.947Z,49.72
2022-08-05T10:44:13.920Z,50.98
2022-08-05T10:45:23.347Z,51.47
2022-08-05T10:46:13.917Z,52.75
2022-08-05T10:47:26.817Z,53.81
2022-08-05T10:48:31.460Z,49.87
2022-08-05T10:49:16.322Z,47.21
2022-08-05T10:50:32.419Z,47.80
2022-08-05T10:51:22.340Z,50.16
2022-08-05T10:52:13.840Z,48.88
2022-08-05T10:53:13.831Z,55.39
2022-08-05T10:54:28.606Z,53.22
2022-08-05T10:55:15.949Z,50.85
2022-08-05T10:56:21.046Z,45.83
2022-08-05T10:57:13.780Z,57.17
2022-08-05T10:58:15.638Z,52.43
2022-08-05T11:00:03.390Z,49.38
2022-08-05T11:00:19.112Z,47.01
2022-08-05T11:01:13.749Z,49.67
2022-08-05T11:02:14.721Z,50.14
2022-08-05T11:03:25.201Z,49.45
2022-08-05T11:04:13.766Z,47.48
2022-08-05T11:05:13.697Z,51.23
2022-08-05T11:06:15.651Z,48.27
2022-08-05T11:07:13.698Z,49.35
2022-08-05T11:08:36.613Z,51.84
2022-08-05T11:09:16.807Z,51.45
2022-08-05T11:10:13.668Z,50.85
2022-08-05T11:11:16.741Z,47.11
2022-08-05T11:12:13.661Z,49.87
2022-08-05T11:13:13.636Z,47.21
2022-08-05T11:14:13.641Z,46.99
2022-08-05T11:15:20.464Z,45.90
2022-08-05T11:16:13.607Z,43.84
2022-08-05T11:17:59.072Z,43.24
2022-08-05T11:18:14.578Z,44.82
2022-08-05T11:20:16.960Z,44.13
2022-08-05T11:20:23.170Z,44.92
2022-08-05T11:21:13.541Z,45.81
2022-08-05T11:22:13.553Z,50.04
2022-08-05T11:23:13.517Z,51.89
2022-08-05T11:24:29.985Z,47.85
2022-08-05T11:26:03.238Z,49.04
2022-08-05T11:26:13.516Z,45.59
2022-08-05T11:27:13.493Z,47.75
2022-08-05T11:28:17.164Z,48.52
2022-08-05T11:29:14.299Z,47.63
2022-08-05T11:30:13.476Z,48.30
2022-08-05T11:31:54.101Z,47.91
2022-08-05T11:32:13.452Z,44.58
2022-08-05T11:33:20.930Z,48.03
2022-08-05T11:34:14.800Z,46.75
2022-08-05T11:35:15.419Z,47.73
2022-08-05T11:36:13.395Z,44.78
2022-08-05T11:38:30.793Z,45.67
2022-08-05T11:38:45.997Z,45.47
2022-08-05T11:39:13.592Z,49.80
2022-08-05T11:40:13.379Z,45.67
2022-08-05T11:41:58.004Z,43.10
2022-08-05T11:42:18.336Z,47.34
2022-08-05T11:43:13.332Z,51.28
2022-08-05T11:44:40.123Z,49.30
2022-08-05T11:45:27.012Z,45.27
2022-08-05T11:46:32.527Z,46.55
2022-08-05T11:47:18.550Z,43.50
2022-08-05T11:48:13.289Z,44.70
2022-08-05T11:49:13.280Z,47.46
2022-08-05T11:50:14.140Z,46.87
2022-08-05T11:51:13.250Z,50.02
2022-08-05T11:52:13.250Z,49.73
2022-08-05T11:53:13.232Z,47.66
2022-08-05T11:54:13.895Z,45.68
2022-08-05T11:55:13.212Z,44.11
2022-08-05T11:56:13.224Z,44.31
2022-08-05T11:57:25.977Z,47.56
2022-08-05T11:58:13.191Z,46.87
2022-08-05T11:59:13.706Z,49.82
2022-08-05T12:00:13.165Z,46.08
2022-08-05T12:01:13.163Z,44.31
2022-08-05T12:02:30.319Z,48.35
2022-08-05T12:03:13.212Z,46.28
2022-08-05T12:04:13.635Z,48.82
2022-08-05T12:05:18.152Z,48.32
2022-08-05T12:06:13.134Z,49.80
2022-08-05T12:07:18.416Z,48.20
2022-08-05T12:08:18.446Z,46.82
2022-08-05T12:09:19.990Z,46.72
2022-08-05T12:10:13.168Z,45.15
2022-08-05T12:11:17.270Z,45.45
2022-08-05T12:12:13.076Z,48.10
2022-08-05T12:13:15.865Z,49.08
2022-08-05T12:14:13.023Z,43.48
2022-08-05T12:15:16.717Z,43.38
2022-08-05T12:16:14.607Z,44.07
2022-08-05T12:18:03.201Z,46.43
2022-08-05T12:18:13.252Z,45.74
2022-08-05T12:20:25.692Z,46.13
2022-08-05T12:20:33.722Z,44.66
2022-08-05T12:21:15.236Z,48.69
2022-08-05T12:22:12.946Z,45.64
2022-08-05T12:23:12.944Z,46.33
2022-08-05T12:24:12.911Z,48.89
2022-08-05T12:25:14.422Z,50.46
2022-08-05T12:26:12.899Z,46.84
2022-08-05T12:27:21.553Z,45.67
2022-08-05T12:28:12.877Z,46.06
2022-08-05T12:29:16.437Z,45.47
2022-08-05T12:30:15.571Z,46.15
2022-08-05T12:31:12.869Z,45.17
2022-08-05T12:32:12.847Z,45.47
2022-08-05T12:33:27.443Z,44.76
2022-08-05T12:34:14.582Z,44.07
2022-08-05T12:35:12.822Z,44.26
2022-08-05T12:36:12.858Z,44.85
2022-08-05T12:37:17.026Z,45.94
2022-08-05T12:38:12.777Z,43.48
2022-08-05T12:39:12.815Z,43.08
2022-08-05T12:40:26.382Z,45.15
2022-08-05T12:41:13.261Z,44.56
2022-08-05T12:42:14.705Z,45.64
2022-08-05T12:43:12.727Z,43.38
2022-08-05T12:44:14.388Z,46.60
2022-08-05T12:45:12.733Z,43.55
2022-08-05T12:46:12.690Z,42.47
2022-08-05T12:47:12.902Z,42.96
2022-08-05T12:48:26.850Z,47.78
2022-08-05T12:49:13.720Z,42.77
2022-08-05T12:50:12.658Z,44.93
2022-08-05T12:52:10.339Z,50.54
2022-08-05T12:52:25.390Z,46.21
2022-08-05T12:53:12.660Z,48.86
2022-08-05T12:54:14.837Z,45.52
2022-08-05T12:55:12.612Z,44.24
2022-08-05T12:56:34.549Z,44.54
2022-08-05T12:57:12.810Z,47.41
2022-08-05T12:58:48.495Z,45.94
2022-08-05T12:59:13.902Z,46.82